createdAt,value
2019-04-28T00:01:31.079Z,10.90
2019-04-28T00:03:58.945Z,10.30
2019-04-28T00:06:26.539Z,10.60
2019-04-28T00:08:54.222Z,10.90
2019-04-28T00:11:21.758Z,10.90
2019-04-28T00:13:51.817Z,11.20
2019-04-28T00:16:20.997Z,10.40
2019-04-28T00:18:48.708Z,10.90
2019-04-28T00:21:45.282Z,10.80
2019-04-28T00:24:31.297Z,11.10
2019-04-28T00:27:01.793Z,12.00
2019-04-28T00:29:38.632Z,10.20
2019-04-28T00:32:07.683Z,11.30
2019-04-28T00:34:34.686Z,10.50
2019-04-28T00:37:18.159Z,11.50
2019-04-28T00:39:45.571Z,10.90
2019-04-28T00:42:29.020Z,10.90
2019-04-28T00:44:56.385Z,10.40
2019-04-28T00:47:24.490Z,10.90
2019-04-28T00:49:52.079Z,10.90
2019-04-28T00:52:21.982Z,10.20
2019-04-28T00:54:49.779Z,10.30
2019-04-28T00:57:17.388Z,11.20
2019-04-28T00:59:57.697Z,11.10
2019-04-28T01:02:34.299Z,10.50
2019-04-28T01:05:21.453Z,10.90
2019-04-28T01:07:48.848Z,10.80
2019-04-28T01:10:16.476Z,11.00
2019-04-28T01:12:46.498Z,12.20
2019-04-28T01:15:24.091Z,11.80
2019-04-28T01:18:07.272Z,10.10
2019-04-28T01:20:34.504Z,10.80
2019-04-28T01:23:02.206Z,10.90
2019-04-28T01:25:29.841Z,10.90
2019-04-28T01:28:00.201Z,10.90
2019-04-28T01:30:45.961Z,12.10
2019-04-28T01:33:23.681Z,10.50
2019-04-28T01:35:50.965Z,11.40
2019-04-28T01:38:20.475Z,11.50
2019-04-28T01:40:49.772Z,10.10
2019-04-28T01:43:17.180Z,10.90
2019-04-28T01:45:44.612Z,10.80
2019-04-28T01:48:11.850Z,10.70
2019-04-28T01:50:40.008Z,10.40
2019-04-28T01:53:27.053Z,9.30
2019-04-28T01:55:54.616Z,10.30
2019-04-28T01:58:21.922Z,10.80
2019-04-28T02:00:50.535Z,10.90
2019-04-28T02:03:17.981Z,11.60
2019-04-28T02:05:45.336Z,10.70
2019-04-28T02:08:12.685Z,11.70
2019-04-28T02:10:40.274Z,10.00
2019-04-28T02:13:09.587Z,11.20
2019-04-28T02:15:37.190Z,11.70
2019-04-28T02:18:04.668Z,11.10
2019-04-28T02:20:32.078Z,10.90
2019-04-28T02:23:07.541Z,10.90
2019-04-28T02:25:34.923Z,10.90
2019-04-28T02:28:02.208Z,11.30
2019-04-28T02:30:53.545Z,10.60
2019-04-28T02:33:21.108Z,10.40
2019-04-28T02:35:50.865Z,10.80
2019-04-28T02:38:17.182Z,9.50
2019-04-28T02:40:44.556Z,11.20
2019-04-28T02:43:11.829Z,10.90
2019-04-28T02:45:41.306Z,11.20
2019-04-28T02:48:13.894Z,11.40
2019-04-28T02:50:50.983Z,10.90
2019-04-28T02:53:26.950Z,11.30
2019-04-28T02:55:54.794Z,10.90
2019-04-28T02:58:22.632Z,11.00
2019-04-28T03:01:02.771Z,10.40
2019-04-28T03:03:21.170Z,11.60
2019-04-28T03:05:51.267Z,11.00
2019-04-28T03:08:37.481Z,10.80
2019-04-28T03:11:04.884Z,10.80
2019-04-28T03:13:32.564Z,11.10
2019-04-28T03:16:01.536Z,10.90
2019-04-28T03:18:31.663Z,11.60
2019-04-28T03:21:01.666Z,11.40
2019-04-28T03:23:30.873Z,12.20
2019-04-28T03:26:16.647Z,11.00
2019-04-28T03:28:51.335Z,10.80
2019-04-28T03:32:03.868Z,10.70
2019-04-28T03:34:12.564Z,10.90
2019-04-28T03:36:37.971Z,10.90
2019-04-28T03:39:06.965Z,10.80
2019-04-28T03:41:34.758Z,10.80
2019-04-28T03:44:02.093Z,10.50
2019-04-28T03:46:31.619Z,10.70
2019-04-28T03:49:00.706Z,10.70
2019-04-28T03:51:30.670Z,11.70
2019-04-28T03:54:17.250Z,10.10
2019-04-28T03:56:44.985Z,10.60
2019-04-28T03:59:12.244Z,10.80
2019-04-28T04:01:55.335Z,9.90
2019-04-28T04:04:11.293Z,10.50
2019-04-28T04:06:40.816Z,10.80
2019-04-28T04:09:07.905Z,10.80
2019-04-28T04:11:43.482Z,10.80
2019-04-28T04:14:44.272Z,11.20
2019-04-28T04:17:21.163Z,10.50
2019-04-28T04:19:50.331Z,10.70
2019-04-28T04:22:18.033Z,11.70
2019-04-28T04:24:45.329Z,10.70
2019-04-28T04:27:32.243Z,10.40
2019-04-28T04:30:14.564Z,10.20
2019-04-28T04:32:41.978Z,10.10
2019-04-28T04:35:10.422Z,10.80
2019-04-28T04:37:40.396Z,10.80
2019-04-28T04:40:07.081Z,10.90
2019-04-28T04:42:34.843Z,10.10
2019-04-28T04:45:02.279Z,10.80
2019-04-28T04:47:32.660Z,10.80
2019-04-28T04:50:20.811Z,10.40
2019-04-28T04:52:50.046Z,10.40
2019-04-28T04:55:17.516Z,11.50
2019-04-28T04:57:44.890Z,11.00
2019-04-28T05:00:17.711Z,10.80
2019-04-28T05:02:54.687Z,10.90
2019-04-28T05:05:30.915Z,10.40
2019-04-28T05:08:00.287Z,11.00
2019-04-28T05:10:28.081Z,11.00
2019-04-28T05:12:55.601Z,11.10
2019-04-28T05:15:42.421Z,10.60
2019-04-28T05:18:10.266Z,10.60
2019-04-28T05:20:37.900Z,10.70
2019-04-28T05:23:14.943Z,10.30
2019-04-28T05:25:43.015Z,11.10
2019-04-28T05:28:32.456Z,10.60
2019-04-28T05:31:00.056Z,10.80
2019-04-28T05:33:30.389Z,11.70
2019-04-28T05:36:16.239Z,10.50
2019-04-28T05:41:29.571Z,10.40
2019-04-28T05:43:56.949Z,11.10
2019-04-28T05:46:24.612Z,11.50
2019-04-28T05:49:03.761Z,11.10
2019-04-28T05:51:32.735Z,11.40
2019-04-28T05:54:09.936Z,11.20
2019-04-28T05:56:42.090Z,11.60
2019-04-28T06:00:03.981Z,11.10
2019-04-28T06:02:35.058Z,11.10
2019-04-28T06:05:02.537Z,10.60
2019-04-28T06:07:40.522Z,10.80
2019-04-28T06:10:12.481Z,11.30
2019-04-28T06:12:40.540Z,11.30
2019-04-28T06:15:29.372Z,12.20
2019-04-28T06:20:43.557Z,11.10
2019-04-28T06:23:10.957Z,10.00
2019-04-28T06:25:38.648Z,10.60
2019-04-28T06:28:06.057Z,11.10
2019-04-28T06:30:33.839Z,11.70
2019-04-28T06:33:07.704Z,11.20
2019-04-28T06:35:30.866Z,11.30
2019-04-28T06:37:58.870Z,10.60
2019-04-28T06:40:40.014Z,11.20
2019-04-28T06:43:16.894Z,11.30
2019-04-28T06:46:02.711Z,10.90
2019-04-28T06:48:30.223Z,11.30
2019-04-28T06:50:57.848Z,10.60
2019-04-28T06:53:25.653Z,11.10
2019-04-28T06:55:53.123Z,11.20
2019-04-28T06:58:20.659Z,11.30
2019-04-28T07:00:48.240Z,11.20
2019-04-28T07:03:23.016Z,11.40
2019-04-28T07:05:45.208Z,10.60
2019-04-28T07:08:13.964Z,11.80
2019-04-28T07:10:43.832Z,10.50
2019-04-28T07:13:14.082Z,11.50
2019-04-28T07:16:04.271Z,11.60
2019-04-28T07:18:32.174Z,11.20
2019-04-28T07:21:22.765Z,11.60
2019-04-28T07:23:50.822Z,11.20
2019-04-28T07:26:18.445Z,11.80
2019-04-28T07:28:47.386Z,11.80
2019-04-28T07:31:15.380Z,10.90
2019-04-28T07:33:47.484Z,13.00
2019-04-28T07:36:15.310Z,11.80
2019-04-28T07:41:54.795Z,12.40
2019-04-28T07:44:32.310Z,11.80
2019-04-28T07:47:27.010Z,11.70
2019-04-28T07:49:53.969Z,11.70
2019-04-28T07:52:40.123Z,11.60
2019-04-28T07:55:36.310Z,12.00
2019-04-28T07:58:08.539Z,11.70
2019-04-28T08:00:41.135Z,12.60
2019-04-28T08:03:18.370Z,11.50
2019-04-28T08:05:55.628Z,11.60
2019-04-28T08:08:42.692Z,11.80
2019-04-28T08:11:15.457Z,11.20
2019-04-28T08:14:05.376Z,11.50
2019-04-28T08:17:22.464Z,11.90
2019-04-28T08:19:36.227Z,12.40
2019-04-28T08:22:23.506Z,11.60
2019-04-28T08:24:51.380Z,11.40
2019-04-28T08:27:18.840Z,11.80
2019-04-28T08:29:58.017Z,11.50
2019-04-28T08:32:35.835Z,11.60
2019-04-28T08:35:03.853Z,11.60
2019-04-28T08:37:38.413Z,11.70
2019-04-28T08:40:05.437Z,10.90
2019-04-28T08:42:33.383Z,11.80
2019-04-28T08:45:00.808Z,11.80
2019-04-28T08:47:40.736Z,12.70
2019-04-28T08:51:13.429Z,11.90
2019-04-28T08:53:49.032Z,10.80
2019-04-28T08:56:21.198Z,11.80
2019-04-28T08:59:11.521Z,11.50
2019-04-28T09:01:44.425Z,11.90
2019-04-28T09:05:14.059Z,11.40
2019-04-28T09:07:41.742Z,11.90
2019-04-28T09:10:09.733Z,12.00
2019-04-28T09:12:41.884Z,11.40
2019-04-28T09:15:09.947Z,13.40
2019-04-28T09:17:37.681Z,12.00
2019-04-28T09:20:33.927Z,12.60
2019-04-28T09:26:23.691Z,11.40
2019-04-28T09:29:03.072Z,11.80
2019-04-28T09:31:36.446Z,11.20
2019-04-28T09:34:45.883Z,11.90
2019-04-28T09:41:00.111Z,12.00
2019-04-28T09:43:59.922Z,11.80
2019-04-28T09:46:39.804Z,13.80
2019-04-28T09:49:11.356Z,12.90
2019-04-28T09:54:34.039Z,13.50
2019-04-28T09:57:05.276Z,12.30
2019-04-28T09:59:33.223Z,12.70
2019-04-28T10:02:00.484Z,12.30
2019-04-28T10:04:46.799Z,12.70
2019-04-28T10:07:51.142Z,12.80
2019-04-28T10:10:18.573Z,12.20
2019-04-28T10:12:46.170Z,12.90
2019-04-28T10:15:13.667Z,13.30
2019-04-28T10:17:41.544Z,13.10
2019-04-28T10:20:25.197Z,13.20
2019-04-28T10:22:55.227Z,13.30
2019-04-28T10:25:22.501Z,13.30
2019-04-28T10:27:54.982Z,13.30
2019-04-28T10:30:24.410Z,13.30
2019-04-28T10:33:23.028Z,13.50
2019-04-28T10:36:46.198Z,13.00
2019-04-28T10:39:32.951Z,13.10
2019-04-28T10:42:04.575Z,13.20
2019-04-28T10:44:33.374Z,13.20
2019-04-28T10:47:02.907Z,13.20
2019-04-28T10:49:31.583Z,13.30
2019-04-28T10:51:59.895Z,13.30
2019-04-28T10:54:30.410Z,13.20
2019-04-28T10:57:00.193Z,13.30
2019-04-28T10:59:27.546Z,13.30
2019-04-28T11:05:16.865Z,13.40
2019-04-28T11:07:57.232Z,12.60
2019-04-28T11:10:24.787Z,13.50
2019-04-28T11:13:15.564Z,13.50
2019-04-28T11:15:52.984Z,13.00
2019-04-28T11:18:21.294Z,13.40
2019-04-28T11:20:48.493Z,13.50
2019-04-28T11:23:23.183Z,13.50
2019-04-28T11:25:52.835Z,13.40
2019-04-28T11:31:54.104Z,13.50
2019-04-28T11:37:26.011Z,14.10
2019-04-28T11:40:26.214Z,12.10
2019-04-28T11:43:54.649Z,14.20
2019-04-28T11:46:08.030Z,13.20
2019-04-28T11:48:35.370Z,12.10
2019-04-28T11:51:02.767Z,13.70
2019-04-28T11:53:29.653Z,13.10
2019-04-28T11:55:56.737Z,13.00
2019-04-28T12:02:18.120Z,12.90
2019-04-28T12:04:49.353Z,12.80
2019-04-28T12:07:37.901Z,12.80
2019-04-28T12:10:31.870Z,12.10
2019-04-28T12:13:43.052Z,13.10
2019-04-28T12:16:46.858Z,12.80
2019-04-28T12:20:10.474Z,12.00
2019-04-28T12:22:41.238Z,12.60
2019-04-28T12:25:25.201Z,12.50
2019-04-28T12:27:52.778Z,13.10
2019-04-28T12:30:19.888Z,12.90
2019-04-28T12:32:47.310Z,12.50
2019-04-28T12:35:14.875Z,13.00
2019-04-28T12:37:42.617Z,13.00
2019-04-28T12:40:09.605Z,12.40
2019-04-28T12:42:37.054Z,12.50
2019-04-28T12:45:34.514Z,12.50
2019-04-28T12:47:53.090Z,12.00
2019-04-28T12:50:25.560Z,12.40
2019-04-28T12:52:52.434Z,12.40
2019-04-28T12:55:19.952Z,12.30
2019-04-28T12:57:46.854Z,12.30
2019-04-28T13:00:36.934Z,12.40
2019-04-28T13:03:18.767Z,12.30
2019-04-28T13:05:46.197Z,12.30
2019-04-28T13:08:13.100Z,12.30
2019-04-28T13:10:40.540Z,12.30
2019-04-28T13:13:07.623Z,12.30
2019-04-28T13:15:34.522Z,12.30
2019-04-28T13:18:01.694Z,12.30
2019-04-28T13:20:28.690Z,12.30
2019-04-28T13:22:56.015Z,12.40
2019-04-28T13:25:23.053Z,12.40
2019-04-28T13:27:50.532Z,12.40
2019-04-28T13:30:17.563Z,12.40
2019-04-28T13:33:04.091Z,12.80
2019-04-28T13:35:39.103Z,11.90
2019-04-28T13:38:06.714Z,12.20
2019-04-28T13:40:35.675Z,12.50
2019-04-28T13:43:03.115Z,12.50
2019-04-28T13:45:30.148Z,12.50
2019-04-28T13:47:57.920Z,13.40
2019-04-28T13:50:37.678Z,12.50
2019-04-28T13:53:05.694Z,12.50
2019-04-28T13:56:04.789Z,12.80
2019-04-28T13:59:03.165Z,12.50
2019-04-28T14:01:43.183Z,11.90
2019-04-28T14:04:24.783Z,11.90
2019-04-28T14:06:56.200Z,12.50
2019-04-28T14:09:23.881Z,11.60
2019-04-28T14:11:51.244Z,12.50
2019-04-28T14:14:19.268Z,12.60
2019-04-28T14:16:46.903Z,11.90
2019-04-28T14:19:16.776Z,12.60
2019-04-28T14:21:50.877Z,12.70
2019-04-28T14:24:15.882Z,12.60
2019-04-28T14:26:44.163Z,13.40
2019-04-28T14:29:11.676Z,12.60
2019-04-28T14:31:39.603Z,12.40
2019-04-28T14:34:07.268Z,11.30
2019-04-28T14:36:41.971Z,12.00
2019-04-28T14:39:06.885Z,12.60
2019-04-28T14:41:34.686Z,12.60
2019-04-28T14:44:21.558Z,12.20
2019-04-28T14:46:48.985Z,12.60
2019-04-28T14:49:16.671Z,12.70
2019-04-28T14:51:49.082Z,12.70
2019-04-28T14:54:26.959Z,12.70
2019-04-28T14:56:56.700Z,13.10
2019-04-28T14:59:24.365Z,12.80
2019-04-28T15:02:21.886Z,13.70
2019-04-28T15:05:20.510Z,12.70
2019-04-28T15:08:10.340Z,13.50
2019-04-28T15:10:56.545Z,13.00
2019-04-28T15:13:24.922Z,12.90
2019-04-28T15:16:00.051Z,13.00
2019-04-28T15:18:37.225Z,13.00
2019-04-28T15:21:24.263Z,12.80
2019-04-28T15:23:51.787Z,13.00
2019-04-28T15:26:31.084Z,13.20
2019-04-28T15:28:58.450Z,13.20
2019-04-28T15:31:45.419Z,13.30
2019-04-28T15:34:13.182Z,13.20
2019-04-28T15:36:44.637Z,13.30
2019-04-28T15:39:31.554Z,13.40
2019-04-28T15:42:12.755Z,12.70
2019-04-28T15:44:40.704Z,13.00
2019-04-28T15:47:07.771Z,13.30
2019-04-28T15:49:35.535Z,13.40
2019-04-28T15:52:02.561Z,13.50
2019-04-28T15:54:30.284Z,13.50
2019-04-28T15:56:57.603Z,13.60
2019-04-28T15:59:25.442Z,14.20
2019-04-28T16:01:52.907Z,12.60
2019-04-28T16:04:20.732Z,13.60
2019-04-28T16:06:48.026Z,13.20
2019-04-28T16:09:15.735Z,13.60
2019-04-28T16:11:44.008Z,13.40
2019-04-28T16:14:11.428Z,13.70
2019-04-28T16:17:27.695Z,13.70
2019-04-28T16:22:56.425Z,13.30
2019-04-28T16:25:23.518Z,12.50
2019-04-28T16:31:17.637Z,13.70
2019-04-28T16:33:50.900Z,13.20
2019-04-28T16:36:48.590Z,13.10
2019-04-28T16:42:31.601Z,13.50
2019-04-28T16:48:08.645Z,13.60
2019-04-28T16:50:36.139Z,13.00
2019-04-28T16:53:03.668Z,13.60
2019-04-28T16:55:39.165Z,13.90
2019-04-28T16:58:16.675Z,13.60
2019-04-28T17:01:02.363Z,13.00
2019-04-28T17:03:31.916Z,13.40
2019-04-28T17:05:59.630Z,14.10
2019-04-28T17:08:27.050Z,13.40
2019-04-28T17:10:54.909Z,13.50
2019-04-28T17:13:22.283Z,13.40
2019-04-28T17:15:50.029Z,13.30
2019-04-28T17:18:17.485Z,13.30
2019-04-28T17:20:44.883Z,13.90
2019-04-28T17:23:12.304Z,13.40
2019-04-28T17:25:41.325Z,13.50
2019-04-28T17:28:09.241Z,12.80
2019-04-28T17:30:36.614Z,13.30
2019-04-28T17:33:04.479Z,13.50
2019-04-28T17:35:32.587Z,13.40
2019-04-28T17:38:06.471Z,13.40
2019-04-28T17:40:29.319Z,14.60
2019-04-28T17:42:56.986Z,13.20
2019-04-28T17:45:44.274Z,13.10
2019-04-28T17:48:18.112Z,13.10
2019-04-28T17:50:53.811Z,14.00
2019-04-28T17:53:21.290Z,13.00
2019-04-28T17:55:49.017Z,13.50
2019-04-28T17:58:36.180Z,13.00
2019-04-28T18:01:21.144Z,12.90
2019-04-28T18:04:01.874Z,13.20
2019-04-28T18:06:29.675Z,13.40
2019-04-28T18:08:57.328Z,13.10
2019-04-28T18:11:24.591Z,13.20
2019-04-28T18:13:52.480Z,13.10
2019-04-28T18:16:51.681Z,13.60
2019-04-28T18:19:19.681Z,13.50
2019-04-28T18:22:06.598Z,12.90
2019-04-28T18:24:34.294Z,12.60
2019-04-28T18:27:01.762Z,12.60
2019-04-28T18:29:29.061Z,12.90
2019-04-28T18:32:16.305Z,12.90
2019-04-28T18:34:55.522Z,12.20
2019-04-28T18:37:52.271Z,13.10
2019-04-28T18:40:45.347Z,13.10
2019-04-28T18:43:35.105Z,13.10
2019-04-28T18:46:02.767Z,13.00
2019-04-28T18:48:29.957Z,11.90
2019-04-28T18:50:57.413Z,12.90
2019-04-28T18:53:24.770Z,12.90
2019-04-28T18:56:12.003Z,11.90
2019-04-28T18:58:39.468Z,12.40
2019-04-28T19:01:26.748Z,13.20
2019-04-28T19:03:54.452Z,12.70
2019-04-28T19:07:05.036Z,13.30
2019-04-28T19:10:02.719Z,12.90
2019-04-28T19:12:44.601Z,12.60
2019-04-28T19:18:12.961Z,12.60
2019-04-28T19:20:40.366Z,12.70
2019-04-28T19:24:00.927Z,12.60
2019-04-28T19:26:28.719Z,12.40
2019-04-28T19:28:55.927Z,12.60
2019-04-28T19:31:46.131Z,12.40
2019-04-28T19:34:15.979Z,12.70
2019-04-28T19:36:43.679Z,12.60
2019-04-28T19:39:11.220Z,11.70
2019-04-28T19:41:45.317Z,12.10
2019-04-28T19:44:12.777Z,12.60
2019-04-28T19:46:40.533Z,12.20
2019-04-28T19:49:07.669Z,12.70
2019-04-28T19:51:35.385Z,13.40
2019-04-28T19:54:02.819Z,12.60
2019-04-28T19:56:35.627Z,12.70
2019-04-28T19:59:22.572Z,12.70
2019-04-28T20:01:50.087Z,13.40
2019-04-28T20:04:36.954Z,12.70
2019-04-28T20:07:21.123Z,12.30
2019-04-28T20:09:57.371Z,11.30
2019-04-28T20:12:25.137Z,12.30
2019-04-28T20:14:52.653Z,12.50
2019-04-28T20:17:20.263Z,12.60
2019-04-28T20:19:47.767Z,11.70
2019-04-28T20:22:16.728Z,12.50
2019-04-28T20:24:47.189Z,12.60
2019-04-28T20:27:33.763Z,12.50
2019-04-28T20:30:40.535Z,12.20
2019-04-28T20:36:28.684Z,12.30
2019-04-28T20:39:00.018Z,12.50
2019-04-28T20:41:29.069Z,13.00
2019-04-28T20:44:02.362Z,12.50
2019-04-28T20:46:31.181Z,11.80
2019-04-28T20:49:18.186Z,12.40
2019-04-28T20:51:46.117Z,12.10
2019-04-28T20:54:13.812Z,13.20
2019-04-28T20:56:41.252Z,12.30
2019-04-28T20:59:08.589Z,12.20
2019-04-28T21:01:35.936Z,12.20
2019-04-28T21:04:04.089Z,12.20
2019-04-28T21:06:31.838Z,12.20
2019-04-28T21:08:59.288Z,12.20
2019-04-28T21:11:27.536Z,11.90
2019-04-28T21:14:15.609Z,12.30
2019-04-28T21:16:43.488Z,11.30
2019-04-28T21:19:10.963Z,11.00
2019-04-28T21:21:38.783Z,12.70
2019-04-28T21:24:06.317Z,10.90
2019-04-28T21:26:36.981Z,11.90
2019-04-28T21:29:05.304Z,12.00
2019-04-28T21:31:32.958Z,11.70
2019-04-28T21:34:00.366Z,10.70
2019-04-28T21:36:28.021Z,11.70
2019-04-28T21:38:55.432Z,11.80
2019-04-28T21:41:22.991Z,10.40
2019-04-28T21:44:00.528Z,11.70
2019-04-28T21:46:47.408Z,12.90
2019-04-28T21:49:37.186Z,11.70
2019-04-28T21:52:04.612Z,11.60
2019-04-28T21:54:32.146Z,11.80
2019-04-28T21:56:59.516Z,11.90
2019-04-28T21:59:27.019Z,12.70
2019-04-28T22:01:54.563Z,11.50
2019-04-28T22:04:22.041Z,11.80
2019-04-28T22:06:49.225Z,11.50
2019-04-28T22:09:16.962Z,12.60
2019-04-28T22:11:45.929Z,11.50
2019-04-28T22:14:13.410Z,12.60
2019-04-28T22:16:41.219Z,11.50
2019-04-28T22:19:08.617Z,11.50
2019-04-28T22:21:35.920Z,12.20
2019-04-28T22:24:42.437Z,11.00
2019-04-28T22:27:13.412Z,11.40
2019-04-28T22:29:41.241Z,11.40
2019-04-28T22:32:08.743Z,10.70
2019-04-28T22:34:36.436Z,11.70
2019-04-28T22:37:03.929Z,10.90
2019-04-28T22:39:31.769Z,11.70
2019-04-28T22:41:59.217Z,11.40
2019-04-28T22:44:46.111Z,11.90
2019-04-28T22:47:14.003Z,11.00
2019-04-28T22:49:41.508Z,11.40
2019-04-28T22:52:09.183Z,11.40
2019-04-28T22:55:16.149Z,11.30
2019-04-28T22:58:03.097Z,11.00
2019-04-28T23:00:48.626Z,11.30
2019-04-28T23:03:50.771Z,11.20
2019-04-28T23:06:19.315Z,11.20
2019-04-28T23:08:46.741Z,11.20
2019-04-28T23:11:14.474Z,11.10
2019-04-28T23:13:41.882Z,11.10
2019-04-28T23:16:09.782Z,11.40
2019-04-28T23:18:37.163Z,11.10
2019-04-28T23:21:12.181Z,11.10
2019-04-28T23:23:39.946Z,11.20
2019-04-28T23:26:26.899Z,11.60
2019-04-28T23:29:07.739Z,10.50
2019-04-28T23:31:35.173Z,10.60
2019-04-28T23:34:02.708Z,11.10
2019-04-28T23:36:30.537Z,11.00
2019-04-28T23:38:57.970Z,10.90
2019-04-28T23:41:45.284Z,10.60
2019-04-28T23:44:13.044Z,10.90
2019-04-28T23:46:58.867Z,10.90
2019-04-28T23:49:26.625Z,10.90
2019-04-28T23:52:16.692Z,10.90
2019-04-28T23:54:46.335Z,10.90
2019-04-28T23:57:14.035Z,9.60
2019-04-28T23:59:41.253Z,10.90
